createdAt,value
2016-12-29T00:00:23.168Z,70.54
2016-12-29T00:00:49.286Z,70.25
2016-12-29T00:01:15.389Z,70.15
2016-12-29T00:01:41.518Z,70.35
2016-12-29T00:02:07.626Z,70.06
2016-12-29T00:02:33.729Z,69.96
2016-12-29T00:02:59.849Z,70.63
2016-12-29T00:03:25.965Z,70.54
2016-12-29T00:03:52.070Z,70.63
2016-12-29T00:04:18.190Z,70.63
2016-12-29T00:04:44.316Z,70.54
2016-12-29T00:05:10.416Z,70.82
2016-12-29T00:05:36.533Z,70.92
2016-12-29T00:06:02.655Z,71.01
2016-12-29T00:06:28.757Z,70.73
2016-12-29T00:06:54.867Z,70.54
2016-12-29T00:07:20.989Z,70.25
2016-12-29T00:07:47.098Z,70.25
2016-12-29T00:08:13.207Z,70.15
2016-12-29T00:08:39.327Z,70.06
2016-12-29T00:09:05.438Z,70.25
2016-12-29T00:09:31.548Z,70.25
2016-12-29T00:09:57.667Z,69.96
2016-12-29T00:10:23.780Z,70.15
2016-12-29T00:10:49.887Z,69.96
2016-12-29T00:11:16.003Z,70.06
2016-12-29T00:11:42.121Z,70.35
2016-12-29T00:12:08.222Z,70.06
2016-12-29T00:12:34.338Z,70.44
2016-12-29T00:13:00.440Z,70.44
2016-12-29T00:13:26.562Z,70.73
2016-12-29T00:13:52.672Z,70.44
2016-12-29T00:14:18.782Z,70.54
2016-12-29T00:14:44.900Z,70.44
2016-12-29T00:15:11.020Z,71.11
2016-12-29T00:15:37.123Z,70.82
2016-12-29T00:16:03.240Z,70.92
2016-12-29T00:16:29.357Z,70.63
2016-12-29T00:16:55.463Z,71.11
2016-12-29T00:17:21.580Z,70.82
2016-12-29T00:17:47.687Z,71.01
2016-12-29T00:18:13.809Z,70.92
2016-12-29T00:18:39.932Z,70.82
2016-12-29T00:19:06.033Z,71.01
2016-12-29T00:19:32.147Z,71.3
2016-12-29T00:19:58.262Z,71.11
2016-12-29T00:20:24.371Z,71.2
2016-12-29T00:20:50.481Z,70.92
2016-12-29T00:21:16.602Z,70.82
2016-12-29T00:21:42.706Z,71.3
2016-12-29T00:22:08.813Z,71.11
2016-12-29T00:22:34.937Z,71.3
2016-12-29T00:23:01.047Z,70.92
2016-12-29T00:23:27.168Z,71.11
2016-12-29T00:23:53.272Z,71.01
2016-12-29T00:24:19.381Z,71.11
2016-12-29T00:24:45.500Z,70.73
2016-12-29T00:25:11.612Z,71.01
2016-12-29T00:25:37.720Z,71.11
2016-12-29T00:26:03.841Z,71.11
2016-12-29T00:26:29.950Z,71.11
2016-12-29T00:26:56.051Z,70.92
2016-12-29T00:27:22.174Z,71.2
2016-12-29T00:27:48.290Z,71.01
2016-12-29T00:28:14.396Z,71.3
2016-12-29T00:28:40.515Z,71.67
2016-12-29T00:29:06.623Z,71.2
2016-12-29T00:29:32.751Z,71.01
2016-12-29T00:29:58.864Z,71.11
2016-12-29T00:30:24.971Z,71.58
2016-12-29T00:30:51.092Z,71.2
2016-12-29T00:31:17.201Z,71.11
2016-12-29T00:31:43.314Z,71.86
2016-12-29T00:32:09.435Z,71.58
2016-12-29T00:32:35.550Z,71.67
2016-12-29T00:33:01.652Z,71.3
2016-12-29T00:33:27.765Z,71.58
2016-12-29T00:33:53.888Z,71.67
2016-12-29T00:34:19.989Z,71.58
2016-12-29T00:34:46.105Z,71.58
2016-12-29T00:35:12.212Z,71.39
2016-12-29T00:35:38.333Z,71.67
2016-12-29T00:36:04.456Z,71.86
2016-12-29T00:36:30.560Z,72.06
2016-12-29T00:36:56.675Z,71.86
2016-12-29T00:37:22.824Z,71.86
2016-12-29T00:37:48.931Z,71.77
2016-12-29T00:38:15.048Z,71.86
2016-12-29T00:38:41.163Z,72.06
2016-12-29T00:39:07.275Z,71.86
2016-12-29T00:39:33.374Z,72.15
2016-12-29T00:39:59.497Z,71.58
2016-12-29T00:40:25.613Z,71.67
2016-12-29T00:40:51.733Z,71.67
2016-12-29T00:41:17.840Z,72.15
2016-12-29T00:41:43.955Z,71.86
2016-12-29T00:42:10.074Z,71.77
2016-12-29T00:42:36.180Z,71.96
2016-12-29T00:43:02.291Z,72.06
2016-12-29T00:43:28.411Z,71.86
2016-12-29T00:43:54.524Z,71.77
2016-12-29T00:44:20.625Z,71.86
2016-12-29T00:44:46.753Z,72.15
2016-12-29T00:45:12.869Z,71.58
2016-12-29T00:45:38.978Z,72.25
2016-12-29T00:46:05.091Z,71.77
2016-12-29T00:46:31.193Z,71.86
2016-12-29T00:46:57.322Z,71.96
2016-12-29T00:47:23.431Z,72.02
2016-12-29T00:47:49.535Z,72.34
2016-12-29T00:48:15.654Z,72.44
2016-12-29T00:48:41.766Z,72.15
2016-12-29T00:49:07.877Z,72.34
2016-12-29T00:49:33.993Z,72.15
2016-12-29T00:50:00.118Z,72.15
2016-12-29T00:50:26.215Z,71.67
2016-12-29T00:50:52.332Z,71.58
2016-12-29T00:51:18.455Z,71.73
2016-12-29T00:51:44.558Z,71.92
2016-12-29T00:52:10.672Z,72.21
2016-12-29T00:52:36.795Z,72.11
2016-12-29T00:53:02.900Z,72.59
2016-12-29T00:53:29.001Z,72.97
2016-12-29T00:53:55.128Z,72.59
2016-12-29T00:54:21.235Z,72.78
2016-12-29T00:54:47.348Z,72.97
2016-12-29T00:55:13.465Z,72.78
2016-12-29T00:55:39.580Z,72.59
2016-12-29T00:56:05.686Z,72.97
2016-12-29T00:56:31.803Z,72.97
2016-12-29T00:56:57.905Z,72.59
2016-12-29T00:57:24.029Z,72.68
2016-12-29T00:57:50.141Z,72.59
2016-12-29T00:58:16.251Z,72.88
2016-12-29T00:58:42.525Z,72.88
2016-12-29T00:59:08.646Z,73.16
2016-12-29T00:59:34.749Z,72.88
2016-12-29T01:00:00.868Z,72.59
2016-12-29T01:00:26.984Z,73.07
2016-12-29T01:00:53.092Z,72.59
2016-12-29T01:01:19.199Z,72.97
2016-12-29T01:01:45.327Z,72.78
2016-12-29T01:02:11.429Z,72.78
2016-12-29T01:02:37.543Z,73.07
2016-12-29T01:03:03.645Z,72.49
2016-12-29T01:03:29.762Z,72.78
2016-12-29T01:03:55.884Z,72.78
2016-12-29T01:04:21.981Z,72.59
2016-12-29T01:04:48.100Z,72.78
2016-12-29T01:05:14.215Z,73.25
2016-12-29T01:05:40.325Z,72.88
2016-12-29T01:06:06.437Z,72.78
2016-12-29T01:06:32.561Z,72.97
2016-12-29T01:06:58.664Z,72.78
2016-12-29T01:07:24.768Z,72.78
2016-12-29T01:07:50.892Z,72.97
2016-12-29T01:08:17.012Z,72.88
2016-12-29T01:08:43.135Z,73.16
2016-12-29T01:09:09.240Z,73.35
2016-12-29T01:09:35.350Z,72.97
2016-12-29T01:10:01.472Z,72.68
2016-12-29T01:10:27.580Z,72.78
2016-12-29T01:10:53.687Z,72.88
2016-12-29T01:11:19.807Z,72.78
2016-12-29T01:11:45.917Z,73.63
2016-12-29T01:12:12.022Z,73.54
2016-12-29T01:12:38.142Z,73.82
2016-12-29T01:13:04.258Z,73.54
2016-12-29T01:13:30.361Z,73.92
2016-12-29T01:13:56.477Z,73.72
2016-12-29T01:14:22.597Z,73.54
2016-12-29T01:14:48.701Z,73.72
2016-12-29T01:15:14.816Z,73.54
2016-12-29T01:15:40.941Z,73.54
2016-12-29T01:16:07.046Z,73.63
2016-12-29T01:16:33.159Z,73.92
2016-12-29T01:16:59.275Z,73.82
2016-12-29T01:17:25.384Z,73.92
2016-12-29T01:17:51.489Z,74.01
2016-12-29T01:18:17.620Z,74.11
2016-12-29T01:18:43.731Z,74.39
2016-12-29T01:19:09.847Z,74.2
2016-12-29T01:19:35.955Z,73.63
2016-12-29T01:20:02.065Z,74.2
2016-12-29T01:20:28.183Z,74.2
2016-12-29T01:20:54.286Z,73.72
2016-12-29T01:21:20.396Z,73.82
2016-12-29T01:21:46.521Z,74.11
2016-12-29T01:22:12.664Z,74.39
2016-12-29T01:22:38.773Z,74.11
2016-12-29T01:23:04.888Z,74.2
2016-12-29T01:23:31.004Z,74.3
2016-12-29T01:23:57.104Z,74.01
2016-12-29T01:24:23.227Z,73.54
2016-12-29T01:24:49.327Z,73.92
2016-12-29T01:25:15.448Z,73.72
2016-12-29T01:25:41.554Z,73.92
2016-12-29T01:26:07.659Z,73.92
2016-12-29T01:26:33.785Z,74.3
2016-12-29T01:26:59.901Z,73.72
2016-12-29T01:27:26.004Z,74.2
2016-12-29T01:27:52.122Z,74.2
2016-12-29T01:28:18.237Z,74.11
2016-12-29T01:28:44.341Z,74.11
2016-12-29T01:29:10.453Z,74.49
2016-12-29T01:29:36.580Z,74.2
2016-12-29T01:30:02.680Z,74.26
2016-12-29T01:30:28.802Z,74.45
2016-12-29T01:30:54.908Z,74.58
2016-12-29T01:31:21.028Z,74.58
2016-12-29T01:31:47.148Z,74.58
2016-12-29T01:32:13.249Z,74.2
2016-12-29T01:32:39.365Z,74.3
2016-12-29T01:33:05.489Z,73.82
2016-12-29T01:33:31.596Z,74.3
2016-12-29T01:33:57.707Z,74.39
2016-12-29T01:34:23.830Z,74.39
2016-12-29T01:34:49.941Z,74.39
2016-12-29T01:35:16.040Z,74.2
2016-12-29T01:35:42.171Z,73.82
2016-12-29T01:36:08.280Z,74.39
2016-12-29T01:36:34.382Z,74.87
2016-12-29T01:37:00.510Z,74.49
2016-12-29T01:37:26.631Z,73.92
2016-12-29T01:37:52.733Z,74.39
2016-12-29T01:38:18.855Z,74.11
2016-12-29T01:38:44.971Z,74.2
2016-12-29T01:39:11.080Z,74.2
2016-12-29T01:39:37.193Z,74.01
2016-12-29T01:40:03.316Z,73.72
2016-12-29T01:40:29.420Z,73.82
2016-12-29T01:40:55.529Z,73.63
2016-12-29T01:41:21.638Z,73.72
2016-12-29T01:41:47.749Z,73.82
2016-12-29T01:42:13.870Z,74.01
2016-12-29T01:42:39.974Z,74.11
2016-12-29T01:43:06.084Z,74.2
2016-12-29T01:43:32.235Z,74.16
2016-12-29T01:43:58.335Z,74.2
2016-12-29T01:44:24.450Z,74.2
2016-12-29T01:44:50.567Z,74.2
2016-12-29T01:45:16.677Z,74.16
2016-12-29T01:45:42.778Z,73.88
2016-12-29T01:46:08.908Z,74.2
2016-12-29T01:46:35.017Z,74.39
2016-12-29T01:47:01.137Z,74.26
2016-12-29T01:47:27.244Z,74.35
2016-12-29T01:47:53.359Z,73.72
2016-12-29T01:48:19.484Z,74.3
2016-12-29T01:48:45.597Z,74.2
2016-12-29T01:49:11.699Z,73.72
2016-12-29T01:49:37.825Z,74.01
2016-12-29T01:50:03.932Z,73.82
2016-12-29T01:50:30.039Z,73.92
2016-12-29T01:50:56.160Z,73.92
2016-12-29T01:51:22.282Z,73.92
2016-12-29T01:51:48.381Z,73.88
2016-12-29T01:52:14.497Z,73.6
2016-12-29T01:52:40.603Z,73.88
2016-12-29T01:53:06.726Z,73.72
2016-12-29T01:53:32.841Z,73.69
2016-12-29T01:53:58.949Z,73.69
2016-12-29T01:54:25.067Z,73.82
2016-12-29T01:54:51.177Z,73.82
2016-12-29T01:55:17.283Z,73.6
2016-12-29T01:55:43.403Z,73.6
2016-12-29T01:56:09.518Z,73.79
2016-12-29T01:56:35.622Z,73.97
2016-12-29T01:57:01.734Z,74.45
2016-12-29T01:57:27.862Z,74.26
2016-12-29T01:57:53.964Z,74.35
2016-12-29T01:58:20.084Z,73.97
2016-12-29T01:58:46.184Z,74.16
2016-12-29T01:59:12.352Z,74.26
2016-12-29T01:59:38.472Z,74.01
2016-12-29T02:00:04.577Z,74.11
2016-12-29T02:00:30.689Z,74.2
2016-12-29T02:00:56.813Z,73.69
2016-12-29T02:01:22.919Z,73.69
2016-12-29T02:01:49.025Z,74.07
2016-12-29T02:02:15.148Z,74.01
2016-12-29T02:02:41.251Z,73.6
2016-12-29T02:03:07.358Z,73.79
2016-12-29T02:03:33.473Z,73.79
2016-12-29T02:03:59.587Z,73.97
2016-12-29T02:04:25.712Z,74.26
2016-12-29T02:04:51.810Z,74.16
2016-12-29T02:05:17.925Z,74.54
2016-12-29T02:05:44.043Z,74.26
2016-12-29T02:06:10.153Z,74.26
2016-12-29T02:06:36.255Z,74.73
2016-12-29T02:07:02.382Z,74.45
2016-12-29T02:07:28.491Z,74.35
2016-12-29T02:07:54.600Z,74.54
2016-12-29T02:08:20.718Z,74.54
2016-12-29T02:08:46.827Z,74.45
2016-12-29T02:09:12.943Z,74.45
2016-12-29T02:09:39.053Z,74.83
2016-12-29T02:10:05.181Z,74.45
2016-12-29T02:10:31.310Z,74.35
2016-12-29T02:10:57.416Z,74.35
2016-12-29T02:11:23.525Z,74.35
2016-12-29T02:11:49.642Z,74.26
2016-12-29T02:12:15.762Z,74.16
2016-12-29T02:12:41.865Z,74.45
2016-12-29T02:13:07.978Z,74.54
2016-12-29T02:13:34.105Z,75.02
2016-12-29T02:14:00.206Z,74.73
2016-12-29T02:14:26.324Z,74.54
2016-12-29T02:14:52.432Z,74.64
2016-12-29T02:15:18.555Z,74.73
2016-12-29T02:15:44.670Z,74.83
2016-12-29T02:16:10.774Z,74.54
2016-12-29T02:16:36.891Z,75.02
2016-12-29T02:17:03.006Z,74.64
2016-12-29T02:17:29.108Z,74.54
2016-12-29T02:17:55.218Z,74.73
2016-12-29T02:18:21.343Z,75.02
2016-12-29T02:18:47.445Z,74.64
2016-12-29T02:19:13.555Z,75.02
2016-12-29T02:19:39.677Z,74.92
2016-12-29T02:20:05.786Z,74.83
2016-12-29T02:20:31.884Z,74.73
2016-12-29T02:20:58.015Z,74.35
2016-12-29T02:21:24.124Z,74.54
2016-12-29T02:21:50.230Z,74.54
2016-12-29T02:22:16.352Z,74.45
2016-12-29T02:22:42.464Z,74.45
2016-12-29T02:23:08.567Z,74.35
2016-12-29T02:23:34.681Z,74.83
2016-12-29T02:24:00.798Z,74.54
2016-12-29T02:24:26.902Z,74.35
2016-12-29T02:24:53.017Z,74.54
2016-12-29T02:25:19.143Z,74.54
2016-12-29T02:25:45.246Z,74.45
2016-12-29T02:26:11.367Z,74.83
2016-12-29T02:26:37.466Z,74.92
2016-12-29T02:27:03.590Z,74.92
2016-12-29T02:27:29.707Z,74.54
2016-12-29T02:27:55.814Z,74.45
2016-12-29T02:28:21.925Z,74.83
2016-12-29T02:28:48.044Z,74.83
2016-12-29T02:29:14.145Z,74.26
2016-12-29T02:29:40.256Z,74.64
2016-12-29T02:30:06.378Z,74.07
2016-12-29T02:30:32.487Z,74.54
2016-12-29T02:30:58.586Z,74.54
2016-12-29T02:31:24.703Z,74.45
2016-12-29T02:31:50.811Z,74.83
2016-12-29T02:32:16.939Z,74.54
2016-12-29T02:32:43.042Z,74.83
2016-12-29T02:33:09.159Z,74.16
2016-12-29T02:33:35.274Z,74.16
2016-12-29T02:34:01.380Z,73.97
2016-12-29T02:34:27.486Z,74.16
2016-12-29T02:34:53.607Z,73.88
2016-12-29T02:35:19.721Z,74.16
2016-12-29T02:35:45.831Z,74.26
2016-12-29T02:36:11.951Z,73.97
2016-12-29T02:36:38.067Z,74.16
2016-12-29T02:37:04.184Z,74.54
2016-12-29T02:37:30.293Z,74.54
2016-12-29T02:37:56.394Z,73.79
2016-12-29T02:38:22.518Z,74.45
2016-12-29T02:38:48.627Z,73.69
2016-12-29T02:39:14.736Z,73.97
2016-12-29T02:39:40.855Z,74.16
2016-12-29T02:40:06.971Z,74.07
2016-12-29T02:40:33.078Z,74.07
2016-12-29T02:40:59.196Z,73.97
2016-12-29T02:41:25.316Z,73.97
2016-12-29T02:41:51.421Z,74.07
2016-12-29T02:42:17.536Z,74.16
2016-12-29T02:42:43.637Z,74.07
2016-12-29T02:43:09.756Z,74.26
2016-12-29T02:43:35.867Z,74.16
2016-12-29T02:44:01.978Z,74.16
2016-12-29T02:44:28.096Z,74.73
2016-12-29T02:44:54.220Z,74.64
2016-12-29T02:45:20.324Z,74.83
2016-12-29T02:45:46.440Z,74.83
2016-12-29T02:46:12.564Z,74.83
2016-12-29T02:46:38.662Z,74.92
2016-12-29T02:47:04.774Z,74.54
2016-12-29T02:47:30.889Z,74.73
2016-12-29T02:47:57.002Z,74.83
2016-12-29T02:48:23.120Z,75.02
2016-12-29T02:48:49.220Z,74.73
2016-12-29T02:49:15.335Z,74.83
2016-12-29T02:49:41.458Z,74.64
2016-12-29T02:50:07.565Z,74.54
2016-12-29T02:50:33.675Z,74.64
2016-12-29T02:50:59.796Z,74.54
2016-12-29T02:51:25.902Z,74.73
2016-12-29T02:51:52.003Z,74.64
2016-12-29T02:52:18.126Z,74.83
2016-12-29T02:52:44.239Z,74.83
2016-12-29T02:53:10.345Z,74.54
2016-12-29T02:53:36.463Z,74.73
2016-12-29T02:54:02.570Z,74.35
2016-12-29T02:54:28.691Z,74.73
2016-12-29T02:54:54.796Z,74.35
2016-12-29T02:55:20.900Z,74.83
2016-12-29T02:55:47.023Z,74.54
2016-12-29T02:56:13.134Z,74.54
2016-12-29T02:56:39.240Z,74.73
2016-12-29T02:57:05.362Z,74.35
2016-12-29T02:57:31.476Z,74.35
2016-12-29T02:57:57.578Z,74.07
2016-12-29T02:58:23.698Z,74.35
2016-12-29T02:58:49.813Z,74.35
2016-12-29T02:59:15.923Z,74.83
2016-12-29T02:59:42.036Z,74.26
2016-12-29T03:00:08.145Z,74.35
2016-12-29T03:00:34.267Z,74.26
2016-12-29T03:01:00.390Z,73.88
2016-12-29T03:01:26.499Z,74.35
2016-12-29T03:01:52.615Z,74.16
2016-12-29T03:02:18.735Z,74.35
2016-12-29T03:02:44.833Z,74.16
2016-12-29T03:03:10.943Z,73.79
2016-12-29T03:03:37.064Z,74.16
2016-12-29T03:04:03.170Z,73.69
2016-12-29T03:04:29.288Z,73.88
2016-12-29T03:04:55.403Z,74.07
2016-12-29T03:05:21.504Z,74.16
2016-12-29T03:05:47.607Z,74.16
2016-12-29T03:06:13.730Z,74.26
2016-12-29T03:06:39.839Z,74.35
2016-12-29T03:07:05.942Z,74.16
2016-12-29T03:07:32.065Z,74.83
2016-12-29T03:07:58.182Z,75.02
2016-12-29T03:08:24.282Z,74.92
2016-12-29T03:08:50.404Z,74.64
2016-12-29T03:09:16.520Z,74.92
2016-12-29T03:09:42.625Z,75.11
2016-12-29T03:10:08.739Z,74.73
2016-12-29T03:10:34.847Z,74.73
2016-12-29T03:11:00.969Z,74.83
2016-12-29T03:11:27.084Z,74.83
2016-12-29T03:11:53.194Z,74.45
2016-12-29T03:12:19.312Z,74.64
2016-12-29T03:12:45.430Z,74.83
2016-12-29T03:13:11.527Z,74.54
2016-12-29T03:13:37.642Z,74.73
2016-12-29T03:14:03.763Z,74.64
2016-12-29T03:14:29.865Z,74.73
2016-12-29T03:14:55.975Z,74.73
2016-12-29T03:15:22.091Z,74.45
2016-12-29T03:15:48.202Z,74.54
2016-12-29T03:16:14.329Z,74.83
2016-12-29T03:16:40.427Z,75.21
2016-12-29T03:17:06.540Z,75.31
2016-12-29T03:17:32.661Z,75.78
2016-12-29T03:17:58.764Z,75.4
2016-12-29T03:18:24.868Z,75.49
2016-12-29T03:18:50.991Z,75.49
2016-12-29T03:19:17.100Z,75.59
2016-12-29T03:19:43.198Z,76.06
2016-12-29T03:20:09.325Z,75.78
2016-12-29T03:20:35.434Z,75.87
2016-12-29T03:21:01.543Z,75.78
2016-12-29T03:21:27.661Z,75.96
2016-12-29T03:21:53.766Z,75.96
2016-12-29T03:22:19.890Z,75.78
2016-12-29T03:22:45.998Z,76.06
2016-12-29T03:23:12.101Z,75.96
2016-12-29T03:23:38.226Z,75.87
2016-12-29T03:24:04.338Z,75.78
2016-12-29T03:24:30.446Z,76.06
2016-12-29T03:24:56.561Z,75.78
2016-12-29T03:25:22.681Z,76.34
2016-12-29T03:25:48.781Z,76.15
2016-12-29T03:26:14.899Z,76.06
2016-12-29T03:26:41.015Z,75.87
2016-12-29T03:27:07.124Z,75.68
2016-12-29T03:27:33.236Z,75.59
2016-12-29T03:27:59.345Z,75.64
2016-12-29T03:28:25.458Z,75.68
2016-12-29T03:28:51.571Z,75.68
2016-12-29T03:29:17.671Z,76.15
2016-12-29T03:29:43.792Z,75.4
2016-12-29T03:30:09.913Z,75.4
2016-12-29T03:30:36.016Z,75.96
2016-12-29T03:31:02.128Z,75.87
2016-12-29T03:31:28.257Z,75.93
2016-12-29T03:31:54.362Z,75.84
2016-12-29T03:32:20.473Z,75.74
2016-12-29T03:32:46.588Z,75.93
2016-12-29T03:33:12.703Z,76.44
2016-12-29T03:33:38.819Z,76.03
2016-12-29T03:34:04.923Z,76.12
2016-12-29T03:34:31.040Z,76.03
2016-12-29T03:34:57.162Z,75.93
2016-12-29T03:35:23.264Z,76.03
2016-12-29T03:35:49.375Z,75.84
2016-12-29T03:36:15.488Z,75.87
2016-12-29T03:36:41.594Z,75.93
2016-12-29T03:37:07.693Z,75.93
2016-12-29T03:37:33.820Z,75.93
2016-12-29T03:37:59.928Z,76.03
2016-12-29T03:38:26.045Z,75.84
2016-12-29T03:38:52.153Z,75.64
2016-12-29T03:39:18.265Z,76.03
2016-12-29T03:39:44.383Z,75.93
2016-12-29T03:40:10.491Z,76.03
2016-12-29T03:40:36.592Z,75.64
2016-12-29T03:41:02.719Z,75.93
2016-12-29T03:41:28.826Z,75.93
2016-12-29T03:41:54.929Z,76.03
2016-12-29T03:42:21.052Z,76.31
2016-12-29T03:42:47.163Z,76.03
2016-12-29T03:43:13.271Z,75.84
2016-12-29T03:43:39.387Z,76.12
2016-12-29T03:44:05.495Z,76.12
2016-12-29T03:44:31.619Z,75.93
2016-12-29T03:44:57.730Z,76.03
2016-12-29T03:45:23.837Z,75.93
2016-12-29T03:45:49.957Z,75.84
2016-12-29T03:46:16.065Z,76.12
2016-12-29T03:46:42.169Z,76.87
2016-12-29T03:47:08.293Z,76.68
2016-12-29T03:47:34.416Z,76.5
2016-12-29T03:48:00.514Z,76.4
2016-12-29T03:48:26.624Z,76.87
2016-12-29T03:48:52.740Z,76.03
2016-12-29T03:49:18.851Z,75.93
2016-12-29T03:49:44.958Z,76.12
2016-12-29T03:50:11.084Z,76.21
2016-12-29T03:50:37.190Z,76.31
2016-12-29T03:51:03.294Z,76.03
2016-12-29T03:51:29.421Z,75.93
2016-12-29T03:51:55.532Z,76.03
2016-12-29T03:52:21.638Z,75.84
2016-12-29T03:52:47.762Z,75.84
2016-12-29T03:53:13.882Z,75.93
2016-12-29T03:53:39.982Z,75.93
2016-12-29T03:54:06.101Z,76.12
2016-12-29T03:54:32.216Z,76.03
2016-12-29T03:54:58.328Z,76.03
2016-12-29T03:55:24.439Z,76.03
2016-12-29T03:55:50.540Z,76.12
2016-12-29T03:56:16.662Z,75.74
2016-12-29T03:56:42.776Z,76.12
2016-12-29T03:57:08.879Z,76.21
2016-12-29T03:57:34.996Z,76.31
2016-12-29T03:58:01.118Z,76.21
2016-12-29T03:58:27.214Z,75.74
2016-12-29T03:58:53.328Z,76.03
2016-12-29T03:59:19.450Z,76.31
2016-12-29T03:59:45.584Z,75.93
2016-12-29T04:00:11.695Z,76.12
2016-12-29T04:00:37.804Z,75.93
2016-12-29T04:01:03.922Z,75.84
2016-12-29T04:01:30.049Z,75.84
2016-12-29T04:01:56.149Z,76.03
2016-12-29T04:02:22.261Z,75.84
2016-12-29T04:02:48.390Z,75.74
2016-12-29T04:03:14.490Z,75.93
2016-12-29T04:03:40.598Z,75.74
2016-12-29T04:04:06.727Z,76.31
2016-12-29T04:04:32.830Z,76.12
2016-12-29T04:04:58.936Z,76.03
2016-12-29T04:05:25.053Z,75.84
2016-12-29T04:05:51.164Z,76.03
2016-12-29T04:06:17.286Z,75.93
2016-12-29T04:06:43.384Z,76.03
2016-12-29T04:07:09.489Z,75.93
2016-12-29T04:07:35.613Z,76.03
2016-12-29T04:08:01.719Z,76.12
2016-12-29T04:08:27.820Z,76.21
2016-12-29T04:08:53.941Z,76.21
2016-12-29T04:09:20.050Z,75.93
2016-12-29T04:09:46.148Z,75.93
2016-12-29T04:10:12.304Z,76.21
2016-12-29T04:10:38.414Z,76.21
2016-12-29T04:11:04.523Z,75.93
2016-12-29T04:11:30.635Z,75.84
2016-12-29T04:11:56.737Z,75.84
2016-12-29T04:12:22.865Z,75.93
2016-12-29T04:12:48.973Z,75.84
2016-12-29T04:13:15.077Z,75.93
2016-12-29T04:13:41.196Z,75.74
2016-12-29T04:14:07.307Z,76.31
2016-12-29T04:14:33.416Z,75.84
2016-12-29T04:14:59.532Z,76.12
2016-12-29T04:15:25.651Z,75.84
2016-12-29T04:15:51.755Z,75.93
2016-12-29T04:16:17.870Z,75.93
2016-12-29T04:16:43.989Z,75.84
2016-12-29T04:17:10.093Z,75.74
2016-12-29T04:17:36.210Z,76.03
2016-12-29T04:18:02.310Z,76.03
2016-12-29T04:18:28.431Z,76.21
2016-12-29T04:18:54.546Z,75.74
2016-12-29T04:19:20.650Z,75.84
2016-12-29T04:19:46.762Z,75.93
2016-12-29T04:20:12.881Z,76.03
2016-12-29T04:20:38.987Z,75.93
2016-12-29T04:21:05.096Z,75.74
2016-12-29T04:21:31.215Z,76.03
2016-12-29T04:21:57.319Z,76.03
2016-12-29T04:22:23.422Z,76.12
2016-12-29T04:22:49.538Z,76.31
2016-12-29T04:23:15.643Z,76.31
2016-12-29T04:23:41.770Z,75.84
2016-12-29T04:24:07.870Z,75.64
2016-12-29T04:24:33.986Z,75.84
2016-12-29T04:25:00.101Z,76.03
2016-12-29T04:25:26.205Z,76.12
2016-12-29T04:25:52.306Z,75.93
2016-12-29T04:26:18.427Z,75.93
2016-12-29T04:26:44.537Z,76.03
2016-12-29T04:27:10.637Z,76.12
2016-12-29T04:27:36.756Z,76.12
2016-12-29T04:28:02.863Z,76.12
2016-12-29T04:28:28.979Z,76.03
2016-12-29T04:28:55.089Z,75.93
2016-12-29T04:29:21.214Z,75.84
2016-12-29T04:29:47.338Z,75.93
2016-12-29T04:30:13.447Z,75.64
2016-12-29T04:30:39.556Z,75.74
2016-12-29T04:31:05.673Z,76.12
2016-12-29T04:31:31.785Z,76.21
2016-12-29T04:31:57.894Z,76.5
2016-12-29T04:32:24.015Z,76.78
2016-12-29T04:32:50.131Z,76.5
2016-12-29T04:33:16.237Z,75.84
2016-12-29T04:33:42.349Z,76.21
2016-12-29T04:34:08.471Z,75.64
2016-12-29T04:34:34.573Z,76.12
2016-12-29T04:35:00.683Z,76.03
2016-12-29T04:35:26.801Z,76.4
2016-12-29T04:35:52.909Z,76.87
2016-12-29T04:36:19.016Z,76.5
2016-12-29T04:36:45.135Z,75.74
2016-12-29T04:37:11.253Z,75.93
2016-12-29T04:37:37.359Z,76.12
2016-12-29T04:38:03.479Z,75.74
2016-12-29T04:38:29.586Z,75.84
2016-12-29T04:38:55.689Z,76.03
2016-12-29T04:39:21.809Z,76.03
2016-12-29T04:39:47.907Z,75.64
2016-12-29T04:40:14.039Z,76.03
2016-12-29T04:40:40.148Z,75.64
2016-12-29T04:41:06.254Z,76.31
2016-12-29T04:41:32.370Z,76.78
2016-12-29T04:41:58.482Z,76.4
2016-12-29T04:42:24.586Z,76.4
2016-12-29T04:42:50.707Z,76.4
2016-12-29T04:43:16.824Z,76.78
2016-12-29T04:43:42.924Z,76.68
2016-12-29T04:44:09.038Z,76.97
2016-12-29T04:44:35.155Z,76.87
2016-12-29T04:45:01.257Z,76.78
2016-12-29T04:45:27.375Z,76.68
2016-12-29T04:45:53.473Z,76.4
2016-12-29T04:46:19.587Z,76.31
2016-12-29T04:46:45.708Z,76.31
2016-12-29T04:47:11.806Z,76.78
2016-12-29T04:47:37.925Z,76.97
2016-12-29T04:48:04.039Z,76.87
2016-12-29T04:48:30.136Z,76.87
2016-12-29T04:48:56.243Z,76.87
2016-12-29T04:49:22.365Z,76.87
2016-12-29T04:49:48.477Z,76.97
2016-12-29T04:50:14.575Z,76.97
2016-12-29T04:50:40.692Z,76.78
2016-12-29T04:51:06.804Z,77.06
2016-12-29T04:51:32.928Z,77.06
2016-12-29T04:51:59.030Z,77.06
2016-12-29T04:52:25.140Z,76.68
2016-12-29T04:52:51.259Z,76.4
2016-12-29T04:53:17.365Z,76.5
2016-12-29T04:53:43.468Z,76.59
2016-12-29T04:54:09.596Z,76.5
2016-12-29T04:54:35.710Z,76.12
2016-12-29T04:55:01.811Z,76.68
2016-12-29T04:55:27.928Z,76.4
2016-12-29T04:55:54.040Z,76.31
2016-12-29T04:56:20.148Z,76.4
2016-12-29T04:56:46.256Z,76.4
2016-12-29T04:57:12.353Z,76.21
2016-12-29T04:57:38.480Z,76.31
2016-12-29T04:58:04.589Z,76.59
2016-12-29T04:58:30.694Z,76.4
2016-12-29T04:58:56.815Z,76.97
2016-12-29T04:59:22.926Z,76.87
2016-12-29T04:59:49.034Z,77.06
2016-12-29T05:00:15.149Z,76.97
2016-12-29T05:00:41.269Z,77.06
2016-12-29T05:01:07.417Z,76.87
2016-12-29T05:01:33.531Z,76.97
2016-12-29T05:01:59.639Z,76.78
2016-12-29T05:02:25.759Z,76.87
2016-12-29T05:02:51.873Z,76.78
2016-12-29T05:03:17.977Z,76.97
2016-12-29T05:03:44.096Z,77.06
2016-12-29T05:04:10.217Z,76.97
2016-12-29T05:04:36.318Z,76.4
2016-12-29T05:05:02.428Z,76.4
2016-12-29T05:05:28.543Z,76.87
2016-12-29T05:05:54.652Z,76.87
2016-12-29T05:06:20.760Z,77.12
2016-12-29T05:06:46.886Z,76.84
2016-12-29T05:07:12.989Z,77.16
2016-12-29T05:07:39.110Z,77.22
2016-12-29T05:08:05.204Z,77.35
2016-12-29T05:08:31.318Z,77.45
2016-12-29T05:08:57.451Z,77.45
2016-12-29T05:09:23.545Z,77.16
2016-12-29T05:09:49.654Z,77.25
2016-12-29T05:10:15.781Z,77.31
2016-12-29T05:10:41.887Z,76.97
2016-12-29T05:11:07.994Z,76.87
2016-12-29T05:11:34.112Z,77.25
2016-12-29T05:12:00.238Z,77.35
2016-12-29T05:12:26.326Z,77.25
2016-12-29T05:12:52.447Z,77.45
2016-12-29T05:13:18.548Z,77.45
2016-12-29T05:13:44.668Z,77.16
2016-12-29T05:14:10.774Z,77.25
2016-12-29T05:14:36.877Z,77.25
2016-12-29T05:15:03.002Z,77.06
2016-12-29T05:15:29.115Z,77.25
2016-12-29T05:15:55.218Z,76.97
2016-12-29T05:16:21.336Z,76.93
2016-12-29T05:16:47.447Z,76.87
2016-12-29T05:17:13.554Z,76.97
2016-12-29T05:17:39.669Z,77.35
2016-12-29T05:18:05.794Z,77.22
2016-12-29T05:18:31.892Z,77.25
2016-12-29T05:18:58.005Z,77.35
2016-12-29T05:19:24.124Z,77.45
2016-12-29T05:19:50.228Z,77.45
2016-12-29T05:20:16.341Z,76.87
2016-12-29T05:20:42.463Z,76.97
2016-12-29T05:21:08.570Z,76.87
2016-12-29T05:21:34.675Z,77.4
2016-12-29T05:22:00.792Z,77.5
2016-12-29T05:22:26.906Z,77.35
2016-12-29T05:22:53.010Z,77.16
2016-12-29T05:23:19.130Z,77.25
2016-12-29T05:23:45.245Z,77.16
2016-12-29T05:24:11.355Z,77.35
2016-12-29T05:24:37.464Z,77.06
2016-12-29T05:25:03.569Z,77.03
2016-12-29T05:25:29.693Z,77.54
2016-12-29T05:25:55.797Z,77.35
2016-12-29T05:26:21.903Z,77.06
2016-12-29T05:26:48.025Z,77.22
2016-12-29T05:27:14.134Z,77.03
2016-12-29T05:27:40.243Z,77.06
2016-12-29T05:28:06.354Z,77.25
2016-12-29T05:28:32.478Z,77.31
2016-12-29T05:28:58.575Z,77.4
2016-12-29T05:29:24.690Z,77.31
2016-12-29T05:29:50.800Z,77.4
2016-12-29T05:30:16.919Z,77.4
2016-12-29T05:30:43.026Z,78.02
2016-12-29T05:31:09.127Z,78.11
2016-12-29T05:31:35.241Z,77.92
2016-12-29T05:32:01.364Z,77.78
2016-12-29T05:32:27.462Z,78.02
2016-12-29T05:32:53.580Z,77.78
2016-12-29T05:33:19.695Z,78.2
2016-12-29T05:33:45.801Z,77.4
2016-12-29T05:34:11.907Z,77.35
2016-12-29T05:34:38.033Z,77.25
2016-12-29T05:35:04.141Z,77.25
2016-12-29T05:35:30.257Z,76.93
2016-12-29T05:35:56.357Z,77.22
2016-12-29T05:36:22.472Z,77.25
2016-12-29T05:36:48.594Z,77.25
2016-12-29T05:37:14.695Z,77.22